createdAt,value
2022-11-05T00:00:37.857Z,3.30
2022-11-05T00:03:23.522Z,3.88
2022-11-05T00:06:11.381Z,3.53
2022-11-05T00:08:57.091Z,3.38
2022-11-05T00:11:43.558Z,3.58
2022-11-05T00:14:28.910Z,3.42
2022-11-05T00:16:55.343Z,3.17
2022-11-05T00:19:21.803Z,3.20
2022-11-05T00:22:06.627Z,3.67
2022-11-05T00:24:51.423Z,3.17
2022-11-05T00:27:17.864Z,3.47
2022-11-05T00:29:44.345Z,3.20
2022-11-05T00:32:13.114Z,3.30
2022-11-05T00:34:39.566Z,3.45
2022-11-05T00:37:05.962Z,3.25
2022-11-05T00:39:32.444Z,3.50
2022-11-05T00:42:17.442Z,3.10
2022-11-05T00:45:02.086Z,3.20
2022-11-05T00:47:48.472Z,3.00
2022-11-05T00:50:15.604Z,3.08
2022-11-05T00:53:02.393Z,3.10
2022-11-05T00:55:40.601Z,3.15
2022-11-05T00:58:18.692Z,2.60
2022-11-05T01:00:55.988Z,2.67
2022-11-05T01:03:25.380Z,2.88
2022-11-05T01:05:54.437Z,2.67
2022-11-05T01:08:22.669Z,2.90
2022-11-05T01:10:52.446Z,3.00
2022-11-05T01:13:21.316Z,2.90
2022-11-05T01:15:48.474Z,2.65
2022-11-05T01:18:14.901Z,2.80
2022-11-05T01:20:41.404Z,2.35
2022-11-05T01:23:13.241Z,2.80
2022-11-05T01:25:41.312Z,2.75
2022-11-05T01:28:09.525Z,2.60
2022-11-05T01:30:36.821Z,2.78
2022-11-05T01:33:03.570Z,2.80
2022-11-05T01:35:30.086Z,2.40
2022-11-05T01:37:56.524Z,2.75
2022-11-05T01:40:23.993Z,2.42
2022-11-05T01:42:50.437Z,2.60
2022-11-05T01:45:23.682Z,2.40
2022-11-05T01:48:08.911Z,2.25
2022-11-05T01:50:47.496Z,2.30
2022-11-05T01:53:41.971Z,2.33
2022-11-05T01:56:29.121Z,2.58
2022-11-05T01:59:20.432Z,2.38
2022-11-05T02:01:47.144Z,2.15
2022-11-05T02:04:19.467Z,2.70
2022-11-05T02:06:46.684Z,2.10
2022-11-05T02:09:20.572Z,2.38
2022-11-05T02:11:48.209Z,2.15
2022-11-05T02:14:14.689Z,2.40
2022-11-05T02:17:00.511Z,2.20
2022-11-05T02:20:03.878Z,2.20
2022-11-05T02:22:50.077Z,2.33
2022-11-05T02:25:42.109Z,2.30
2022-11-05T02:28:32.623Z,2.67
2022-11-05T02:31:33.113Z,2.20
2022-11-05T02:34:02.534Z,2.00
2022-11-05T02:36:46.396Z,2.08
2022-11-05T02:40:03.865Z,2.25
2022-11-05T02:42:30.289Z,2.10
2022-11-05T02:45:30.019Z,2.13
2022-11-05T02:48:05.168Z,1.83
2022-11-05T02:50:44.897Z,1.95
2022-11-05T02:53:18.779Z,2.30
2022-11-05T02:55:47.312Z,2.13
2022-11-05T02:58:13.724Z,2.03
2022-11-05T03:00:57.428Z,2.00
2022-11-05T03:03:45.012Z,1.80
2022-11-05T03:06:26.802Z,2.10
2022-11-05T03:08:53.215Z,2.00
2022-11-05T03:11:26.053Z,2.00
2022-11-05T03:16:41.565Z,2.25
2022-11-05T03:19:17.127Z,1.80
2022-11-05T03:21:53.688Z,1.63
2022-11-05T03:24:49.198Z,1.95
2022-11-05T03:27:19.993Z,1.98
2022-11-05T03:29:51.166Z,1.92
2022-11-05T03:32:20.791Z,1.60
2022-11-05T03:34:51.400Z,1.73
2022-11-05T03:37:20.350Z,2.05
2022-11-05T03:39:52.060Z,1.80
2022-11-05T03:42:23.193Z,1.77
2022-11-05T03:44:54.093Z,2.08
2022-11-05T03:47:26.099Z,2.17
2022-11-05T03:49:58.249Z,1.60
2022-11-05T03:52:29.520Z,1.57
2022-11-05T03:54:56.076Z,1.60
2022-11-05T03:57:29.561Z,1.80
2022-11-05T03:59:56.011Z,1.88
2022-11-05T04:02:25.963Z,1.65
2022-11-05T04:04:53.260Z,1.70
2022-11-05T04:07:38.232Z,1.40
2022-11-05T04:10:23.594Z,1.90
2022-11-05T04:13:08.601Z,1.90
2022-11-05T04:15:53.638Z,1.63
2022-11-05T04:18:20.171Z,1.60
2022-11-05T04:21:05.441Z,1.85
2022-11-05T04:23:50.712Z,1.30
2022-11-05T04:26:17.162Z,1.70
2022-11-05T04:29:07.674Z,1.67
2022-11-05T04:31:36.832Z,1.60
2022-11-05T04:34:03.504Z,1.67
2022-11-05T04:36:29.991Z,1.70
2022-11-05T04:38:56.396Z,1.60
2022-11-05T04:41:23.288Z,1.67
2022-11-05T04:43:49.731Z,1.42
2022-11-05T04:46:16.184Z,1.70
2022-11-05T04:48:42.649Z,1.58
2022-11-05T04:51:09.198Z,1.38
2022-11-05T04:53:35.673Z,1.65
2022-11-05T04:56:23.338Z,1.80
2022-11-05T04:58:50.197Z,1.33
2022-11-05T05:01:19.221Z,1.45
2022-11-05T05:03:50.517Z,1.45
2022-11-05T05:06:18.086Z,1.70
2022-11-05T05:08:44.897Z,1.40
2022-11-05T05:11:13.073Z,1.50
2022-11-05T05:13:39.822Z,1.30
2022-11-05T05:16:08.354Z,1.73
2022-11-05T05:18:35.716Z,1.55
2022-11-05T05:21:21.546Z,1.60
2022-11-05T05:23:48.581Z,1.40
2022-11-05T05:26:16.175Z,1.55
2022-11-05T05:28:42.638Z,1.40
2022-11-05T05:31:09.570Z,1.60
2022-11-05T05:33:36.234Z,1.58
2022-11-05T05:36:07.029Z,1.58
2022-11-05T05:38:36.762Z,1.30
2022-11-05T05:41:03.304Z,1.55
2022-11-05T05:43:33.824Z,1.40
2022-11-05T05:46:09.834Z,1.50
2022-11-05T05:48:36.333Z,1.40
2022-11-05T05:51:08.637Z,1.45
2022-11-05T05:53:36.555Z,1.38
2022-11-05T05:56:03.595Z,1.58
2022-11-05T05:58:38.529Z,1.35
2022-11-05T06:01:08.068Z,1.20
2022-11-05T06:03:34.836Z,1.40
2022-11-05T06:06:06.704Z,1.30
2022-11-05T06:08:33.988Z,1.38
2022-11-05T06:11:01.429Z,1.23
2022-11-05T06:13:28.557Z,1.33
2022-11-05T06:16:00.432Z,1.10
2022-11-05T06:18:26.891Z,1.20
2022-11-05T06:20:53.385Z,1.40
2022-11-05T06:23:19.817Z,1.30
2022-11-05T06:25:46.224Z,1.50
2022-11-05T06:28:12.706Z,1.20
2022-11-05T06:30:39.129Z,1.42
2022-11-05T06:33:05.687Z,1.17
2022-11-05T06:35:32.751Z,1.60
2022-11-05T06:38:01.387Z,1.35
2022-11-05T06:40:30.772Z,1.30
2022-11-05T06:42:57.642Z,1.30
2022-11-05T06:45:24.136Z,1.30
2022-11-05T06:47:57.492Z,1.38
2022-11-05T06:50:25.447Z,1.10
2022-11-05T06:53:00.388Z,1.25
2022-11-05T06:55:29.350Z,1.20
2022-11-05T06:57:56.563Z,1.20
2022-11-05T07:00:23.840Z,1.33
2022-11-05T07:02:50.333Z,1.38
2022-11-05T07:05:17.250Z,1.10
2022-11-05T07:07:45.091Z,1.20
2022-11-05T07:10:14.886Z,1.02
2022-11-05T07:12:42.011Z,1.13
2022-11-05T07:15:10.029Z,1.17
2022-11-05T07:17:36.477Z,1.35
2022-11-05T07:20:04.663Z,1.00
2022-11-05T07:22:31.123Z,1.30
2022-11-05T07:24:57.821Z,1.20
2022-11-05T07:27:24.374Z,1.10
2022-11-05T07:29:50.825Z,0.98
2022-11-05T07:32:17.221Z,1.27
2022-11-05T07:34:43.781Z,1.30
2022-11-05T07:37:10.263Z,1.30
2022-11-05T07:39:36.789Z,1.27
2022-11-05T07:42:03.271Z,1.00
2022-11-05T07:44:29.657Z,1.17
2022-11-05T07:46:56.099Z,1.02
2022-11-05T07:49:23.821Z,1.17
2022-11-05T07:51:50.271Z,0.95
2022-11-05T07:54:16.752Z,1.05
2022-11-05T07:56:43.208Z,1.20
2022-11-05T07:59:09.641Z,1.27
2022-11-05T08:01:36.205Z,1.25
2022-11-05T08:04:03.411Z,1.33
2022-11-05T08:06:29.923Z,1.13
2022-11-05T08:08:56.398Z,1.20
2022-11-05T08:11:22.844Z,1.30
2022-11-05T08:13:49.284Z,1.17
2022-11-05T08:16:15.775Z,1.08
2022-11-05T08:18:42.192Z,1.30
2022-11-05T08:21:09.536Z,1.10
2022-11-05T08:23:36.063Z,1.10
2022-11-05T08:26:03.645Z,1.30
2022-11-05T08:28:30.096Z,1.45
2022-11-05T08:30:57.272Z,1.45
2022-11-05T08:33:24.992Z,1.20
2022-11-05T08:35:51.474Z,1.33
2022-11-05T08:38:19.663Z,1.10
2022-11-05T08:40:54.928Z,1.23
2022-11-05T08:43:21.523Z,1.40
2022-11-05T08:45:48.195Z,1.30
2022-11-05T08:48:16.814Z,1.02
2022-11-05T08:50:45.849Z,1.13
2022-11-05T08:53:13.635Z,1.17
2022-11-05T08:55:40.386Z,1.10
2022-11-05T08:58:12.596Z,1.17
2022-11-05T09:00:39.512Z,1.17
2022-11-05T09:03:07.709Z,1.30
2022-11-05T09:05:38.021Z,1.02
2022-11-05T09:08:09.508Z,0.90
2022-11-05T09:10:37.105Z,1.25
2022-11-05T09:13:04.239Z,1.13
2022-11-05T09:15:31.418Z,1.30
2022-11-05T09:17:57.896Z,1.30
2022-11-05T09:20:24.603Z,1.20
2022-11-05T09:22:51.690Z,1.35
2022-11-05T09:25:18.244Z,1.20
2022-11-05T09:27:44.854Z,1.27
2022-11-05T09:30:12.977Z,1.15
2022-11-05T09:32:39.586Z,1.00
2022-11-05T09:35:07.104Z,1.10
2022-11-05T09:37:33.715Z,1.08
2022-11-05T09:40:00.236Z,1.00
2022-11-05T09:42:34.634Z,1.05
2022-11-05T09:45:05.104Z,1.35
2022-11-05T09:47:39.723Z,1.05
2022-11-05T09:50:16.138Z,1.00
2022-11-05T09:52:42.787Z,1.10
2022-11-05T09:55:32.317Z,1.00
2022-11-05T09:58:07.211Z,0.88
2022-11-05T10:00:34.419Z,1.00
2022-11-05T10:03:08.029Z,1.00
2022-11-05T10:05:36.957Z,1.10
2022-11-05T10:08:10.018Z,0.90
2022-11-05T10:10:41.276Z,1.17
2022-11-05T10:13:35.300Z,1.15
2022-11-05T10:16:20.634Z,0.90
2022-11-05T10:19:06.582Z,1.02
2022-11-05T10:22:04.092Z,1.30
2022-11-05T10:24:21.303Z,1.02
2022-11-05T10:26:51.634Z,1.17
2022-11-05T10:29:26.535Z,1.00
2022-11-05T10:31:55.496Z,1.10
2022-11-05T10:34:26.072Z,1.48
2022-11-05T10:36:54.292Z,1.17
2022-11-05T10:39:21.460Z,0.95
2022-11-05T10:41:54.205Z,1.10
2022-11-05T10:44:47.677Z,1.05
2022-11-05T10:47:30.712Z,1.25
2022-11-05T10:52:39.140Z,0.90
2022-11-05T10:55:24.467Z,1.00
2022-11-05T10:57:51.230Z,0.95
2022-11-05T11:00:18.428Z,1.10
2022-11-05T11:02:47.883Z,1.00
2022-11-05T11:05:28.753Z,1.08
2022-11-05T11:08:02.118Z,1.02
2022-11-05T11:10:32.797Z,0.95
2022-11-05T11:12:59.794Z,1.15
2022-11-05T11:15:32.464Z,0.90
2022-11-05T11:18:17.478Z,1.10
2022-11-05T11:20:46.569Z,0.90
2022-11-05T11:23:15.263Z,0.82
2022-11-05T11:25:53.981Z,1.00
2022-11-05T11:28:26.438Z,0.80
2022-11-05T11:31:01.975Z,0.90
2022-11-05T11:33:29.058Z,1.08
2022-11-05T11:35:56.110Z,0.90
2022-11-05T11:38:24.402Z,0.88
2022-11-05T11:40:51.547Z,1.10
2022-11-05T11:43:28.115Z,1.00
2022-11-05T11:46:02.128Z,0.98
2022-11-05T11:48:35.231Z,1.00
2022-11-05T11:51:16.582Z,0.85
2022-11-05T11:53:43.078Z,0.82
2022-11-05T11:56:12.161Z,0.70
2022-11-05T11:58:53.345Z,0.80
2022-11-05T12:01:47.721Z,0.88
2022-11-05T12:05:08.216Z,0.90
2022-11-05T12:08:03.883Z,0.90
2022-11-05T12:11:08.184Z,1.10
2022-11-05T12:13:52.761Z,1.20
2022-11-05T12:16:36.598Z,1.38
2022-11-05T12:19:44.840Z,1.10
2022-11-05T12:22:26.708Z,1.08
2022-11-05T12:25:14.875Z,1.13
2022-11-05T12:27:53.682Z,1.35
2022-11-05T12:30:21.725Z,1.20
2022-11-05T12:33:06.914Z,1.40
2022-11-05T12:35:48.202Z,1.00
2022-11-05T12:38:34.404Z,1.20
2022-11-05T12:41:21.006Z,1.30
2022-11-05T12:43:47.385Z,1.23
2022-11-05T12:46:51.495Z,1.02
2022-11-05T12:49:57.717Z,1.20
2022-11-05T12:52:27.055Z,1.08
2022-11-05T12:55:05.403Z,1.02
2022-11-05T12:57:35.557Z,1.48
2022-11-05T13:00:27.851Z,1.27
2022-11-05T13:03:09.682Z,1.38
2022-11-05T13:05:40.059Z,1.42
2022-11-05T13:08:11.959Z,1.25
2022-11-05T13:10:49.351Z,1.20
2022-11-05T13:13:41.346Z,1.33
2022-11-05T13:16:26.024Z,1.10
2022-11-05T13:18:56.786Z,1.10
2022-11-05T13:21:25.808Z,1.15
2022-11-05T13:24:07.685Z,1.25
2022-11-05T13:26:49.513Z,1.20
2022-11-05T13:29:26.032Z,1.10
2022-11-05T13:32:02.128Z,1.02
2022-11-05T13:34:32.221Z,1.00
2022-11-05T13:39:55.357Z,1.15
2022-11-05T13:42:46.379Z,0.90
2022-11-05T13:45:50.417Z,1.20
2022-11-05T13:48:25.980Z,0.98
2022-11-05T13:51:23.628Z,1.00
2022-11-05T13:53:52.795Z,1.20
2022-11-05T13:56:46.815Z,1.10
2022-11-05T13:59:51.005Z,0.93
2022-11-05T14:02:36.071Z,0.90
2022-11-05T14:05:03.313Z,1.00
2022-11-05T14:07:45.348Z,1.10
2022-11-05T14:10:17.822Z,1.52
2022-11-05T14:12:50.052Z,1.10
2022-11-05T14:15:21.809Z,1.70
2022-11-05T14:18:05.651Z,2.00
2022-11-05T14:20:32.054Z,1.63
2022-11-05T14:23:23.200Z,1.90
2022-11-05T14:25:57.484Z,1.48
2022-11-05T14:28:38.118Z,1.70
2022-11-05T14:31:47.273Z,2.05
2022-11-05T14:34:15.575Z,1.50
2022-11-05T14:37:02.729Z,1.90
2022-11-05T14:39:31.451Z,1.73
2022-11-05T14:42:02.039Z,1.85
2022-11-05T14:44:30.857Z,2.15
2022-11-05T14:47:01.457Z,2.10
2022-11-05T14:49:32.173Z,2.58
2022-11-05T14:52:05.927Z,2.35
2022-11-05T14:54:50.728Z,2.47
2022-11-05T14:57:43.029Z,2.40
2022-11-05T15:00:29.433Z,7.35
2022-11-05T15:02:58.378Z,5.28
2022-11-05T15:05:51.206Z,5.35
2022-11-05T15:08:24.749Z,9.13
2022-11-05T15:10:54.260Z,7.88
2022-11-05T15:13:31.327Z,8.05
2022-11-05T15:15:58.119Z,8.52
2022-11-05T15:18:40.641Z,9.20
2022-11-05T15:21:10.532Z,9.52
2022-11-05T15:23:41.994Z,9.10
2022-11-05T15:26:13.236Z,8.25
2022-11-05T15:28:46.582Z,8.55
2022-11-05T15:31:12.963Z,8.02
2022-11-05T15:33:47.647Z,8.88
2022-11-05T15:36:27.529Z,8.85
2022-11-05T15:39:23.081Z,7.35
2022-11-05T15:41:40.919Z,8.45
2022-11-05T15:44:24.464Z,8.32
2022-11-05T15:47:05.657Z,7.90
2022-11-05T15:49:34.946Z,8.85
2022-11-05T15:52:01.546Z,7.28
2022-11-05T15:54:30.621Z,7.82
2022-11-05T15:56:58.948Z,7.88
2022-11-05T15:59:27.732Z,7.68
2022-11-05T16:01:58.199Z,7.13
2022-11-05T16:04:32.042Z,7.55
2022-11-05T16:07:01.636Z,6.90
2022-11-05T16:12:14.787Z,7.00
2022-11-05T16:14:41.898Z,7.03
2022-11-05T16:17:21.051Z,7.45
2022-11-05T16:19:48.736Z,6.28
2022-11-05T16:22:15.748Z,6.93
2022-11-05T16:24:42.936Z,6.90
2022-11-05T16:27:21.117Z,6.57
2022-11-05T16:29:51.211Z,6.18
2022-11-05T16:32:31.110Z,6.50
2022-11-05T16:35:04.896Z,6.32
2022-11-05T16:37:40.965Z,6.38
2022-11-05T16:40:22.885Z,5.93
2022-11-05T16:42:51.984Z,6.25
2022-11-05T16:45:21.069Z,5.78
2022-11-05T16:47:47.767Z,6.07
2022-11-05T16:50:19.114Z,6.82
2022-11-05T16:52:46.338Z,5.90
2022-11-05T16:55:13.882Z,6.07
2022-11-05T16:57:43.452Z,5.63
2022-11-05T17:00:16.355Z,5.45
2022-11-05T17:02:43.174Z,5.60
2022-11-05T17:05:36.001Z,5.28
2022-11-05T17:08:03.457Z,5.72
2022-11-05T17:10:30.715Z,6.25
2022-11-05T17:12:57.411Z,5.55
2022-11-05T17:15:30.921Z,6.05
2022-11-05T17:17:58.679Z,5.80
2022-11-05T17:20:27.973Z,5.47
2022-11-05T17:22:55.245Z,5.35
2022-11-05T17:25:21.740Z,5.32
2022-11-05T17:27:48.383Z,5.47
2022-11-05T17:30:14.916Z,5.13
2022-11-05T17:32:41.534Z,5.60
2022-11-05T17:35:08.988Z,5.22
2022-11-05T17:37:36.086Z,5.30
2022-11-05T17:40:05.077Z,5.38
2022-11-05T17:42:31.517Z,5.00
2022-11-05T17:44:57.952Z,4.65
2022-11-05T17:47:26.308Z,4.72
2022-11-05T17:49:52.777Z,5.32
2022-11-05T17:52:19.197Z,5.20
2022-11-05T17:54:45.630Z,4.40
2022-11-05T17:57:12.045Z,4.93
2022-11-05T17:59:38.515Z,4.80
2022-11-05T18:02:05.025Z,5.05
2022-11-05T18:04:32.485Z,4.85
2022-11-05T18:06:58.931Z,5.57
2022-11-05T18:09:26.044Z,4.45
2022-11-05T18:11:52.663Z,5.03
2022-11-05T18:14:23.877Z,4.55
2022-11-05T18:16:51.281Z,4.53
2022-11-05T18:19:18.050Z,4.60
2022-11-05T18:21:44.526Z,4.50
2022-11-05T18:24:10.968Z,4.78
2022-11-05T18:26:37.440Z,4.25
2022-11-05T18:29:05.563Z,4.78
2022-11-05T18:31:32.005Z,4.45
2022-11-05T18:33:59.636Z,4.13
2022-11-05T18:36:29.613Z,4.40
2022-11-05T18:38:58.584Z,4.07
2022-11-05T18:41:25.326Z,4.28
2022-11-05T18:43:51.783Z,4.28
2022-11-05T18:46:43.070Z,4.68
2022-11-05T18:49:05.719Z,4.40
2022-11-05T18:51:32.299Z,4.50
2022-11-05T18:53:59.559Z,4.30
2022-11-05T18:56:26.047Z,4.40
2022-11-05T18:59:14.866Z,4.50
2022-11-05T19:01:40.597Z,4.43
2022-11-05T19:04:07.142Z,4.20
2022-11-05T19:06:34.784Z,4.68
2022-11-05T19:09:01.418Z,4.30
2022-11-05T19:11:27.991Z,3.90
2022-11-05T19:13:54.484Z,4.72
2022-11-05T19:16:23.421Z,3.90
2022-11-05T19:18:50.226Z,4.53
2022-11-05T19:21:20.384Z,4.85
2022-11-05T19:23:46.956Z,4.82
2022-11-05T19:26:16.308Z,4.25
2022-11-05T19:28:42.945Z,4.00
2022-11-05T19:31:15.405Z,4.40
2022-11-05T19:33:43.189Z,4.20
2022-11-05T19:36:10.750Z,3.67
2022-11-05T19:38:37.841Z,3.53
2022-11-05T19:41:07.966Z,4.07
2022-11-05T19:43:38.606Z,3.40
2022-11-05T19:46:10.014Z,3.90
2022-11-05T19:48:36.962Z,3.83
2022-11-05T19:51:08.011Z,3.60
2022-11-05T19:53:35.758Z,4.00
2022-11-05T19:56:10.680Z,3.90
2022-11-05T19:58:37.158Z,4.00
2022-11-05T20:01:03.652Z,4.43
2022-11-05T20:03:30.780Z,3.47
2022-11-05T20:06:16.584Z,4.00
2022-11-05T20:09:07.084Z,3.60
2022-11-05T20:11:31.492Z,3.55
2022-11-05T20:13:57.957Z,3.70
2022-11-05T20:16:32.199Z,3.38
2022-11-05T20:18:58.632Z,3.63
2022-11-05T20:21:25.084Z,3.33
2022-11-05T20:23:51.535Z,4.00
2022-11-05T20:26:17.986Z,3.70
2022-11-05T20:28:44.627Z,3.60
2022-11-05T20:31:13.973Z,3.47
2022-11-05T20:33:43.870Z,3.20
2022-11-05T20:36:14.834Z,3.78
2022-11-05T20:38:41.492Z,3.40
2022-11-05T20:41:09.921Z,3.75
2022-11-05T20:43:37.273Z,3.70
2022-11-05T20:46:04.394Z,3.55
2022-11-05T20:48:32.593Z,3.38
2022-11-05T20:50:59.489Z,3.38
2022-11-05T20:53:25.875Z,3.15
2022-11-05T20:55:52.359Z,3.17
2022-11-05T20:58:18.818Z,3.50
2022-11-05T21:00:51.235Z,2.88
2022-11-05T21:03:18.408Z,3.40
2022-11-05T21:05:50.355Z,3.00
2022-11-05T21:08:20.051Z,3.00
2022-11-05T21:10:51.066Z,3.30
2022-11-05T21:13:18.102Z,3.08
2022-11-05T21:15:50.204Z,3.08
2022-11-05T21:18:22.616Z,2.92
2022-11-05T21:20:49.252Z,3.00
2022-11-05T21:23:16.235Z,3.15
2022-11-05T21:25:44.185Z,3.30
2022-11-05T21:28:12.275Z,2.83
2022-11-05T21:30:47.497Z,3.13
2022-11-05T21:33:15.368Z,2.78
2022-11-05T21:35:44.039Z,3.38
2022-11-05T21:38:12.217Z,3.40
2022-11-05T21:40:39.130Z,2.85
2022-11-05T21:43:06.125Z,2.95
2022-11-05T21:45:32.795Z,2.90
2022-11-05T21:47:59.725Z,2.70
2022-11-05T21:50:44.781Z,2.83
2022-11-05T21:53:34.138Z,2.75
2022-11-05T21:56:23.459Z,2.60
2022-11-05T21:59:08.331Z,2.95
2022-11-05T22:01:34.879Z,3.05
2022-11-05T22:04:03.215Z,2.95
2022-11-05T22:06:33.181Z,2.67
2022-11-05T22:08:59.778Z,3.20
2022-11-05T22:11:26.207Z,2.60
2022-11-05T22:13:53.198Z,2.85
2022-11-05T22:16:19.711Z,2.60
2022-11-05T22:18:46.218Z,2.50
2022-11-05T22:21:18.164Z,2.72
2022-11-05T22:23:44.673Z,2.40
2022-11-05T22:26:11.322Z,2.67
2022-11-05T22:28:37.762Z,2.42
2022-11-05T22:31:04.218Z,2.78
2022-11-05T22:33:31.234Z,2.80
2022-11-05T22:35:57.739Z,2.65
2022-11-05T22:38:24.169Z,2.88
2022-11-05T22:40:50.580Z,3.08
2022-11-05T22:43:16.995Z,2.70
2022-11-05T22:45:43.825Z,2.35
2022-11-05T22:48:10.682Z,2.53
2022-11-05T22:50:37.435Z,2.70
2022-11-05T22:53:03.903Z,2.40
2022-11-05T22:55:30.500Z,2.70
2022-11-05T22:57:56.946Z,2.55
2022-11-05T23:00:34.632Z,2.50
2022-11-05T23:03:02.870Z,2.40
2022-11-05T23:05:30.003Z,2.53
2022-11-05T23:08:15.348Z,2.45
2022-11-05T23:11:00.603Z,2.45
2022-11-05T23:13:27.199Z,2.40
2022-11-05T23:16:12.147Z,2.35
2022-11-05T23:18:57.053Z,2.13
2022-11-05T23:21:41.936Z,2.42
2022-11-05T23:24:08.515Z,2.58
2022-11-05T23:26:52.564Z,2.60
2022-11-05T23:29:22.175Z,2.72
2022-11-05T23:32:07.598Z,2.67
2022-11-05T23:34:34.223Z,2.47
2022-11-05T23:37:19.230Z,2.25
2022-11-05T23:39:45.667Z,2.30
2022-11-05T23:42:30.880Z,2.60
2022-11-05T23:45:16.070Z,2.20
2022-11-05T23:48:01.539Z,2.38
2022-11-05T23:50:32.239Z,2.13
2022-11-05T23:53:02.157Z,2.05
2022-11-05T23:55:30.234Z,2.25
2022-11-05T23:57:56.876Z,2.03
